Time;durP1;ratioP1;P1;durP2;ratioP2;P2;SDS_P1;SDS_P2;PMS_P1;PMS_P2;Temp;Humidity;BMP_temperature;BMP_pressure;BME280_temperature;BME280_humidity;BME280_pressure;Samples;Min_cycle;Max_cycle;Signal;HPM_P1;HPM_P2
2023/05/10 00:01:14;;;;;;;2.57;0.73;;;;;;;12.41;100.00;99384.66;5093398;28;20299;-67
2023/05/10 00:03:40;;;;;;;1.43;0.67;;;;;;;12.30;100.00;99387.19;5083156;28;20215;-67
2023/05/10 00:06:05;;;;;;;0.60;0.60;;;;;;;12.45;100.00;99391.22;5094188;28;20670;-67
2023/05/10 00:08:31;;;;;;;1.13;0.70;;;;;;;12.45;100.00;99392.97;5058644;28;20181;-67
2023/05/10 00:10:56;;;;;;;0.50;0.50;;;;;;;12.52;100.00;99395.00;5091274;28;20251;-68
2023/05/10 00:13:21;;;;;;;0.53;0.53;;;;;;;12.38;100.00;99388.28;5084665;28;20546;-67
2023/05/10 00:15:47;;;;;;;0.40;0.40;;;;;;;12.44;100.00;99392.16;5094358;28;20176;-68
2023/05/10 00:18:12;;;;;;;1.10;0.60;;;;;;;12.42;100.00;99400.00;5094435;28;20196;-67
2023/05/10 00:20:37;;;;;;;0.70;0.70;;;;;;;12.42;100.00;99391.44;5088260;28;20262;-67
2023/05/10 00:23:03;;;;;;;0.67;0.60;;;;;;;12.46;100.00;99402.38;5105343;28;20228;-67
2023/05/10 00:25:28;;;;;;;0.50;0.50;;;;;;;12.48;100.00;99403.91;5094152;28;20173;-68
2023/05/10 00:27:55;;;;;;;1.17;0.60;;;;;;;12.27;100.00;99403.72;5094223;28;20194;-68
2023/05/10 00:30:20;;;;;;;0.57;0.57;;;;;;;12.32;100.00;99395.66;5086063;28;20195;-68
2023/05/10 00:32:47;;;;;;;0.67;0.67;;;;;;;12.42;100.00;99401.78;5107692;28;20505;-66
2023/05/10 00:35:13;;;;;;;4.47;0.73;;;;;;;12.47;100.00;99401.44;5093537;28;20168;-68
2023/05/10 00:37:38;;;;;;;0.60;0.60;;;;;;;12.47;100.00;99411.75;5094313;28;20191;-68
2023/05/10 00:40:04;;;;;;;0.97;0.73;;;;;;;12.48;100.00;99413.38;5084865;28;20179;-67
2023/05/10 00:42:30;;;;;;;1.63;0.70;;;;;;;12.50;100.00;99411.50;5089217;28;20586;-67
2023/05/10 00:44:55;;;;;;;0.60;0.60;;;;;;;12.49;100.00;99407.28;5092630;28;20199;-67
2023/05/10 00:47:21;;;;;;;0.50;0.50;;;;;;;12.53;100.00;99409.53;5093470;28;20324;-68
2023/05/10 00:49:47;;;;;;;0.43;0.43;;;;;;;12.61;100.00;99415.88;5092939;28;20558;-67
2023/05/10 00:52:13;;;;;;;0.97;0.70;;;;;;;12.56;100.00;99421.38;5086474;28;20215;-69
2023/05/10 00:54:38;;;;;;;0.77;0.60;;;;;;;12.42;100.00;99409.50;5093597;28;20700;-67
2023/05/10 00:57:03;;;;;;;0.90;0.90;;;;;;;12.38;100.00;99413.25;5060729;28;20553;-67
2023/05/10 00:59:29;;;;;;;1.27;0.70;;;;;;;12.42;100.00;99399.19;5086401;28;20221;-67
2023/05/10 01:01:55;;;;;;;0.83;0.70;;;;;;;12.36;100.00;99405.59;5097478;28;20235;-67
2023/05/10 01:04:25;;;;;;;1.63;0.70;;;;;;;12.40;100.00;99399.31;5094380;28;20207;-67
2023/05/10 01:06:51;;;;;;;0.60;0.60;;;;;;;12.44;100.00;99399.91;5074964;28;20889;-67
2023/05/10 01:09:17;;;;;;;1.00;0.70;;;;;;;12.48;100.00;99403.91;5093621;28;20168;-67
2023/05/10 01:11:43;;;;;;;2.13;0.73;;;;;;;12.43;100.00;99406.81;5095558;28;20571;-67
2023/05/10 01:14:09;;;;;;;1.43;0.63;;;;;;;12.47;100.00;99410.00;5095769;28;20187;-67
2023/05/10 01:16:40;;;;;;;0.67;0.60;;;;;;;12.50;100.00;99411.50;5072675;28;20606;-67
2023/05/10 01:19:15;;;;;;;0.50;0.50;;;;;;;12.35;100.00;99411.69;5093354;28;20275;-67
2023/05/10 01:21:53;;;;;;;4.50;0.80;;;;;;;12.29;100.00;99412.13;5094958;28;20231;-67
2023/05/10 01:24:58;;;;;;;0.60;0.60;;;;;;;12.28;100.00;99405.38;5094472;28;20221;-67
2023/05/10 01:27:35;;;;;;;2.47;0.77;;;;;;;12.27;100.00;99401.13;5083731;28;20183;-68
2023/05/10 01:30:27;;;;;;;0.87;0.80;;;;;;;12.25;100.00;99405.56;5074665;28;20192;-68
2023/05/10 01:33:10;;;;;;;2.40;0.70;;;;;;;12.33;100.00;99410.16;5062602;28;20301;-66
2023/05/10 01:35:46;;;;;;;0.70;0.70;;;;;;;12.32;100.00;99404.19;5092738;28;20786;-68
2023/05/10 01:38:16;;;;;;;0.53;0.53;;;;;;;12.35;100.00;99406.53;5074571;28;20228;-68
2023/05/10 01:41:12;;;;;;;0.60;0.60;;;;;;;12.34;100.00;99406.66;5087394;28;20231;-67
2023/05/10 01:43:53;;;;;;;1.23;0.77;;;;;;;12.26;100.00;99409.81;5099407;28;20219;-68
2023/05/10 01:46:28;;;;;;;0.63;0.63;;;;;;;12.31;100.00;99410.28;5083773;28;20172;-68
2023/05/10 01:48:57;;;;;;;3.80;0.70;;;;;;;12.34;100.00;99420.38;5092582;28;20190;-69
2023/05/10 01:51:31;;;;;;;0.67;0.50;;;;;;;12.34;100.00;99417.81;5076324;28;20673;-67
2023/05/10 01:54:02;;;;;;;0.60;0.60;;;;;;;12.34;100.00;99419.56;5088874;28;20202;-67
2023/05/10 01:56:30;;;;;;;0.60;0.60;;;;;;;12.41;100.00;99424.16;5070529;28;20203;-67
2023/05/10 01:58:57;;;;;;;1.07;0.70;;;;;;;12.32;100.00;99429.19;5089174;28;20241;-68
2023/05/10 02:01:23;;;;;;;0.63;0.63;;;;;;;12.33;100.00;99431.63;5071546;28;20241;-67
2023/05/10 02:03:51;;;;;;;0.60;0.60;;;;;;;12.39;100.00;99433.78;5093948;28;20208;-68
2023/05/10 02:06:19;;;;;;;0.90;0.70;;;;;;;12.44;100.00;99425.69;5092018;28;20537;-68
2023/05/10 02:08:46;;;;;;;1.63;0.87;;;;;;;12.41;100.00;99431.88;5092273;28;20199;-68
2023/05/10 02:11:13;;;;;;;1.03;0.80;;;;;;;12.39;100.00;99444.09;5089757;28;20623;-68
2023/05/10 02:13:39;;;;;;;2.03;0.83;;;;;;;12.31;100.00;99435.25;5091048;28;20267;-68
2023/05/10 02:16:06;;;;;;;3.07;0.93;;;;;;;12.36;100.00;99451.22;5091061;28;20202;-68
2023/05/10 02:18:34;;;;;;;0.80;0.80;;;;;;;12.45;100.00;99447.97;5070517;28;20264;-68
2023/05/10 02:21:01;;;;;;;1.63;1.17;;;;;;;12.45;100.00;99439.41;5079652;28;20227;-68
2023/05/10 02:23:26;;;;;;;1.30;0.70;;;;;;;12.50;100.00;99433.00;5099822;28;20230;-68
2023/05/10 02:25:54;;;;;;;1.53;1.20;;;;;;;12.46;100.00;99439.28;5091463;28;20579;-67
2023/05/10 02:28:21;;;;;;;0.90;0.80;;;;;;;12.43;100.00;99432.59;5091949;28;20179;-67
2023/05/10 02:30:47;;;;;;;0.70;0.70;;;;;;;12.51;100.00;99450.09;5066270;28;20372;-67
2023/05/10 02:33:14;;;;;;;0.97;0.97;;;;;;;12.54;100.00;99449.03;5099910;28;20195;-67
2023/05/10 02:35:39;;;;;;;1.60;1.00;;;;;;;12.58;100.00;99446.13;5073259;28;20176;-67
2023/05/10 02:38:07;;;;;;;1.53;1.00;;;;;;;12.63;100.00;99448.38;5073193;28;20164;-68
2023/05/10 02:40:33;;;;;;;1.23;0.90;;;;;;;12.59;100.00;99445.19;5085392;28;20239;-67
2023/05/10 02:43:02;;;;;;;1.20;1.10;;;;;;;12.58;100.00;99445.31;5103252;28;20631;-67
2023/05/10 02:45:31;;;;;;;1.27;1.00;;;;;;;12.58;100.00;99442.75;5083129;28;20192;-67
2023/05/10 02:47:56;;;;;;;3.90;1.10;;;;;;;12.56;100.00;99445.41;5090200;28;20580;-66
2023/05/10 02:50:25;;;;;;;3.90;1.20;;;;;;;12.56;100.00;99447.19;5079241;28;20301;-67
2023/05/10 02:52:52;;;;;;;1.00;1.00;;;;;;;12.61;100.00;99447.66;5084263;28;20185;-67
2023/05/10 02:55:22;;;;;;;0.77;0.77;;;;;;;12.51;100.00;99450.09;5090685;28;20278;-67
2023/05/10 02:57:56;;;;;;;0.80;0.80;;;;;;;12.41;100.00;99444.78;5094447;28;20555;-67
2023/05/10 03:00:21;;;;;;;3.43;1.37;;;;;;;12.51;100.00;99449.28;5071719;28;20224;-68
2023/05/10 03:02:47;;;;;;;1.30;1.20;;;;;;;12.47;100.00;99453.84;5084442;28;20222;-68
2023/05/10 03:05:12;;;;;;;1.53;1.00;;;;;;;12.44;100.00;99448.91;5085414;28;20681;-68
2023/05/10 03:07:37;;;;;;;2.50;1.40;;;;;;;12.38;100.00;99449.38;5091726;28;20207;-68
2023/05/10 03:10:04;;;;;;;2.93;1.17;;;;;;;12.39;100.00;99451.81;5084882;28;20241;-66
2023/05/10 03:12:51;;;;;;;1.20;0.90;;;;;;;12.35;100.00;99458.13;5090594;28;20620;-68
2023/05/10 03:15:58;;;;;;;1.07;1.07;;;;;;;12.44;100.00;99461.81;5081077;28;20223;-68
2023/05/10 03:18:52;;;;;;;2.50;1.30;;;;;;;12.45;100.00;99453.13;5075063;28;20176;-67
2023/05/10 03:21:19;;;;;;;2.60;0.90;;;;;;;12.48;100.00;99454.66;5088018;28;20239;-67
2023/05/10 03:23:50;;;;;;;2.23;1.30;;;;;;;12.43;100.00;99457.59;5083816;28;20661;-67
2023/05/10 03:26:25;;;;;;;4.23;1.10;;;;;;;12.52;100.00;99454.31;5090667;28;20711;-66
2023/05/10 03:28:52;;;;;;;1.40;1.30;;;;;;;12.59;100.00;99452.13;5089807;28;20638;-67
2023/05/10 03:31:18;;;;;;;3.33;1.40;;;;;;;12.66;100.00;99461.03;5044939;28;20576;-68
2023/05/10 03:33:50;;;;;;;2.27;1.20;;;;;;;12.49;100.00;99469.19;5083022;28;20187;-66
2023/05/10 03:36:16;;;;;;;3.03;1.20;;;;;;;12.55;100.00;99466.16;5092102;28;20176;-67
2023/05/10 03:38:41;;;;;;;1.60;1.10;;;;;;;12.54;100.00;99472.25;5088434;28;20264;-67
2023/05/10 03:41:07;;;;;;;1.53;1.20;;;;;;;12.55;100.00;99476.50;5085361;28;20227;-67
2023/05/10 03:43:32;;;;;;;2.93;1.30;;;;;;;12.47;100.00;99471.09;5102883;28;20203;-67
2023/05/10 03:45:57;;;;;;;0.90;0.90;;;;;;;12.62;100.00;99477.69;5092043;28;20191;-68
2023/05/10 03:48:22;;;;;;;2.67;0.90;;;;;;;12.63;100.00;99478.50;5086124;28;20188;-67
2023/05/10 03:50:49;;;;;;;1.37;1.00;;;;;;;12.59;100.00;99477.94;5083770;28;20565;-67
2023/05/10 03:53:14;;;;;;;1.50;1.13;;;;;;;12.65;100.00;99481.81;5078119;28;20699;-67
2023/05/10 03:55:40;;;;;;;2.53;1.13;;;;;;;12.69;100.00;99476.31;5094550;28;20189;-68
2023/05/10 03:58:05;;;;;;;4.40;0.90;;;;;;;12.67;100.00;99474.78;5086335;28;20246;-68
2023/05/10 04:00:31;;;;;;;2.67;1.10;;;;;;;12.74;100.00;99466.47;5083801;28;20647;-68
2023/05/10 04:02:56;;;;;;;1.13;1.13;;;;;;;12.73;100.00;99471.75;5103120;28;20187;-68
2023/05/10 04:05:21;;;;;;;1.13;1.03;;;;;;;12.78;100.00;99469.66;5075026;28;20187;-68
2023/05/10 04:07:49;;;;;;;1.33;1.10;;;;;;;12.70;100.00;99472.81;5094624;28;20628;-66
2023/05/10 04:10:15;;;;;;;1.30;1.07;;;;;;;12.75;100.00;99473.28;5083525;28;20184;-67
2023/05/10 04:12:41;;;;;;;5.87;1.50;;;;;;;12.69;100.00;99471.16;5102913;28;20234;-66
2023/05/10 04:15:07;;;;;;;2.00;1.20;;;;;;;12.71;100.00;99464.13;5093441;28;20188;-67
2023/05/10 04:17:32;;;;;;;1.73;1.20;;;;;;;12.65;100.00;99479.22;5094133;28;20215;-67
2023/05/10 04:19:57;;;;;;;1.30;1.20;;;;;;;12.69;100.00;99472.91;5076381;28;20175;-67
2023/05/10 04:22:23;;;;;;;2.83;1.43;;;;;;;12.72;100.00;99478.66;5092576;28;20261;-68
2023/05/10 04:24:48;;;;;;;2.20;1.40;;;;;;;12.71;100.00;99479.63;5096318;28;20600;-67
2023/05/10 04:27:13;;;;;;;4.33;1.30;;;;;;;12.71;100.00;99481.34;5104829;28;20236;-67
2023/05/10 04:29:39;;;;;;;1.50;1.30;;;;;;;12.71;100.00;99476.19;5094163;28;20188;-66
2023/05/10 04:32:04;;;;;;;3.83;1.47;;;;;;;12.68;100.00;99491.91;5082027;28;20211;-68
2023/05/10 04:34:29;;;;;;;1.80;1.60;;;;;;;12.72;100.00;99485.59;5094028;28;20194;-67
2023/05/10 04:36:55;;;;;;;2.93;1.73;;;;;;;12.69;100.00;99490.97;5093670;28;20180;-67
2023/05/10 04:39:20;;;;;;;2.90;1.40;;;;;;;12.73;100.00;99488.03;5093619;28;20586;-67
2023/05/10 04:41:45;;;;;;;2.87;1.50;;;;;;;12.91;100.00;99495.38;5081280;28;20609;-67
2023/05/10 04:44:10;;;;;;;1.80;1.60;;;;;;;12.86;100.00;99495.72;5066495;28;20209;-67
2023/05/10 04:46:36;;;;;;;4.30;1.43;;;;;;;12.79;100.00;99497.09;5093479;28;20172;-67
2023/05/10 04:49:01;;;;;;;1.43;1.33;;;;;;;12.95;100.00;99506.28;5093689;28;20216;-67
2023/05/10 04:51:26;;;;;;;6.23;2.03;;;;;;;12.93;100.00;99506.41;5094322;28;20336;-68
2023/05/10 04:53:52;;;;;;;1.97;1.77;;;;;;;12.99;100.00;99510.31;5098184;28;20191;-66
2023/05/10 04:56:17;;;;;;;3.20;1.67;;;;;;;12.82;100.00;99507.19;5093396;28;20180;-67
2023/05/10 04:58:42;;;;;;;3.20;1.80;;;;;;;12.82;100.00;99502.03;5093493;28;20195;-67
2023/05/10 05:01:08;;;;;;;2.60;1.80;;;;;;;12.84;100.00;99500.16;5091505;28;20688;-67
2023/05/10 05:03:33;;;;;;;2.20;2.00;;;;;;;12.77;100.00;99493.81;5082728;28;20278;-67
2023/05/10 05:05:59;;;;;;;2.70;1.90;;;;;;;12.73;100.00;99500.94;5081537;28;20185;-67
2023/05/10 05:08:24;;;;;;;3.37;2.10;;;;;;;12.76;100.00;99492.16;5090882;28;20547;-67
2023/05/10 05:10:52;;;;;;;4.53;2.40;;;;;;;12.76;100.00;99487.00;5089251;28;20231;-68
2023/05/10 05:13:18;;;;;;;3.53;2.00;;;;;;;12.77;100.00;99488.66;5100249;28;20278;-68
2023/05/10 05:15:43;;;;;;;3.20;2.03;;;;;;;12.89;100.00;99490.31;5074806;28;20661;-68
2023/05/10 05:18:08;;;;;;;3.93;2.00;;;;;;;12.75;100.00;99495.66;5092894;28;20191;-68
2023/05/10 05:20:34;;;;;;;7.10;2.10;;;;;;;12.63;100.00;99505.16;5086491;28;20309;-68
2023/05/10 05:23:00;;;;;;;4.90;2.67;;;;;;;12.62;100.00;99502.69;5086313;28;20228;-68
2023/05/10 05:25:25;;;;;;;2.80;2.00;;;;;;;12.65;100.00;99505.88;5092846;28;20180;-67
2023/05/10 05:27:50;;;;;;;2.03;1.83;;;;;;;12.74;100.00;99506.94;5093276;28;20195;-69
2023/05/10 05:30:16;;;;;;;3.70;2.40;;;;;;;12.88;100.00;99511.09;5083954;28;20187;-70
2023/05/10 05:32:41;;;;;;;3.83;2.07;;;;;;;12.93;100.00;99510.75;5106733;28;20214;-70
2023/05/10 05:35:06;;;;;;;6.70;2.43;;;;;;;12.79;100.00;99504.84;5070505;28;20279;-68
2023/05/10 05:37:32;;;;;;;4.10;2.43;;;;;;;12.94;100.00;99505.47;5088278;28;20180;-68
2023/05/10 05:39:57;;;;;;;2.53;2.00;;;;;;;13.03;100.00;99515.09;5090525;28;20195;-69
2023/05/10 05:42:24;;;;;;;3.20;2.43;;;;;;;12.99;100.00;99510.31;5078543;28;20231;-69
2023/05/10 05:44:49;;;;;;;2.37;1.93;;;;;;;13.25;100.00;99516.09;5088442;28;20228;-70
2023/05/10 05:47:14;;;;;;;2.43;2.23;;;;;;;13.27;100.00;99505.66;5092404;28;20680;-70
2023/05/10 05:49:40;;;;;;;3.60;2.10;;;;;;;13.39;100.00;99507.34;5092083;28;20642;-70
2023/05/10 05:52:05;;;;;;;4.93;3.40;;;;;;;13.46;100.00;99503.34;5097625;28;20211;-65
2023/05/10 05:54:31;;;;;;;8.70;4.10;;;;;;;13.80;100.00;99513.66;5092882;28;20553;-69
2023/05/10 05:57:00;;;;;;;3.00;2.67;;;;;;;14.12;100.00;99517.28;5092154;28;20184;-69
2023/05/10 05:59:26;;;;;;;5.57;2.10;;;;;;;14.23;100.00;99519.00;5086455;28;20493;-70
2023/05/10 06:01:51;;;;;;;7.10;2.60;;;;;;;14.34;100.00;99521.59;5093430;28;20223;-69
2023/05/10 06:04:16;;;;;;;5.90;2.30;;;;;;;14.48;100.00;99517.91;5093364;28;20204;-70
2023/05/10 06:06:42;;;;;;;4.67;2.60;;;;;;;14.34;100.00;99514.63;5092273;28;20229;-71
2023/05/10 06:09:07;;;;;;;5.47;2.30;;;;;;;14.43;100.00;99518.25;5092595;28;20176;-71
2023/05/10 06:11:33;;;;;;;3.27;2.30;;;;;;;14.42;100.00;99526.94;5093425;28;20238;-70
2023/05/10 06:13:59;;;;;;;3.37;2.17;;;;;;;14.48;100.00;99531.63;5088681;28;20546;-71
2023/05/10 06:16:24;;;;;;;2.23;1.70;;;;;;;14.67;100.00;99532.78;5091892;28;20176;-71
2023/05/10 06:18:49;;;;;;;4.57;2.27;;;;;;;14.87;100.00;99538.91;5092322;28;20336;-70
2023/05/10 06:21:16;;;;;;;5.33;1.87;;;;;;;15.03;100.00;99535.09;5090870;28;20253;-71
2023/05/10 06:23:41;;;;;;;4.00;1.93;;;;;;;14.92;100.00;99536.81;5098646;28;20195;-71
2023/05/10 06:26:06;;;;;;;3.67;2.07;;;;;;;15.07;100.00;99541.66;5073006;28;20180;-69
2023/05/10 06:28:33;;;;;;;6.40;1.80;;;;;;;15.38;100.00;99547.72;5092168;28;20627;-70
2023/05/10 06:30:58;;;;;;;4.80;1.77;;;;;;;15.93;100.00;99539.63;5088733;28;20248;-70
2023/05/10 06:33:23;;;;;;;5.43;1.90;;;;;;;16.46;100.00;99540.31;5100355;28;20693;-70
2023/05/10 06:35:49;;;;;;;4.53;1.97;;;;;;;16.70;100.00;99541.66;5091262;28;20187;-70
2023/05/10 06:38:15;;;;;;;1.87;1.40;;;;;;;16.66;100.00;99545.47;5091773;28;20212;-71
2023/05/10 06:40:43;;;;;;;6.17;1.40;;;;;;;16.42;100.00;99552.72;5079258;28;20314;-71
2023/05/10 06:43:08;;;;;;;3.50;1.90;;;;;;;16.99;100.00;99551.25;5063294;28;20173;-70
2023/05/10 06:45:33;;;;;;;2.50;1.30;;;;;;;16.99;100.00;99552.06;5087654;28;20191;-70
2023/05/10 06:47:59;;;;;;;2.10;1.70;;;;;;;16.98;100.00;99553.03;5091807;28;20211;-71
2023/05/10 06:50:24;;;;;;;4.70;1.63;;;;;;;16.89;100.00;99559.84;5084009;28;20658;-71
2023/05/10 06:52:50;;;;;;;3.00;1.73;;;;;;;17.36;100.00;99566.09;5104662;28;20266;-71
2023/05/10 06:55:15;;;;;;;2.33;1.40;;;;;;;19.09;100.00;99564.56;5091292;28;20626;-70
2023/05/10 06:57:41;;;;;;;1.60;1.13;;;;;;;20.32;100.00;99561.75;5090319;28;20208;-72
2023/05/10 07:00:06;;;;;;;4.53;1.63;;;;;;;21.39;100.00;99564.34;5070844;28;20545;-73
2023/05/10 07:02:32;;;;;;;4.20;1.20;;;;;;;21.51;98.77;99559.59;5089097;28;20654;-72
2023/05/10 07:04:57;;;;;;;2.67;1.50;;;;;;;21.85;96.00;99566.34;5091282;28;20244;-71
2023/05/10 07:07:22;;;;;;;2.87;1.40;;;;;;;21.03;97.83;99567.34;5091284;28;20184;-72
2023/05/10 07:09:49;;;;;;;3.43;1.60;;;;;;;20.74;100.00;99576.53;5091626;28;20252;-72
2023/05/10 07:12:14;;;;;;;3.77;1.50;;;;;;;21.89;96.43;99577.31;5096547;28;20697;-72
2023/05/10 07:14:40;;;;;;;3.27;1.40;;;;;;;22.92;90.67;99574.56;5084101;28;20212;-73
2023/05/10 07:17:05;;;;;;;4.17;1.40;;;;;;;23.24;90.12;99583.16;5096703;28;20219;-73
2023/05/10 07:19:32;;;;;;;2.13;1.50;;;;;;;22.41;89.86;99583.78;5091358;28;20184;-73
2023/05/10 07:21:57;;;;;;;1.17;0.98;;;;;;;21.69;95.78;99589.97;5078151;28;20238;-74
2023/05/10 07:24:23;;;;;;;2.37;1.40;;;;;;;21.33;98.85;99585.16;5086781;28;20204;-74
2023/05/10 07:26:48;;;;;;;2.60;1.10;;;;;;;20.93;100.00;99592.84;5083286;28;20261;-73
2023/05/10 07:29:13;;;;;;;2.03;1.33;;;;;;;21.25;99.82;99599.88;5091258;28;20764;-74
2023/05/10 07:31:41;;;;;;;3.33;1.30;;;;;;;21.52;95.60;99597.88;5071322;28;20695;-74
2023/05/10 07:34:06;;;;;;;5.07;1.33;;;;;;;21.32;99.13;99593.97;5094146;28;20190;-75
2023/05/10 07:36:32;;;;;;;2.50;1.30;;;;;;;21.12;100.00;99602.16;5090879;28;20510;-72
2023/05/10 07:38:57;;;;;;;3.60;1.23;;;;;;;20.91;100.00;99595.66;5091548;28;20176;-73
2023/05/10 07:41:23;;;;;;;4.80;1.30;;;;;;;20.44;100.00;99604.88;5078831;28;20216;-74
2023/05/10 07:43:48;;;;;;;2.30;1.33;;;;;;;19.50;100.00;99601.34;5083331;28;20197;-73
2023/05/10 07:46:13;;;;;;;2.97;1.67;;;;;;;19.02;100.00;99604.25;5090413;28;20600;-73
2023/05/10 07:48:38;;;;;;;4.50;1.60;;;;;;;18.84;100.00;99606.88;5091219;28;20182;-73
2023/05/10 07:51:04;;;;;;;2.53;1.47;;;;;;;18.38;100.00;99604.31;5088489;28;20223;-73
2023/05/10 07:53:29;;;;;;;2.93;1.70;;;;;;;17.89;100.00;99614.91;5098780;28;20264;-73
2023/05/10 07:55:58;;;;;;;3.00;1.57;;;;;;;17.75;100.00;99605.00;5072273;28;20192;-73
2023/05/10 07:58:24;;;;;;;5.50;2.00;;;;;;;17.71;100.00;99596.66;5072941;28;20180;-73
2023/05/10 08:00:50;;;;;;;4.63;2.03;;;;;;;17.74;100.00;99592.94;5069417;28;20748;-72
2023/05/10 08:03:15;;;;;;;5.73;2.23;;;;;;;17.81;100.00;99601.81;5100391;28;20192;-73
2023/05/10 08:05:41;;;;;;;4.00;1.50;;;;;;;17.91;100.00;99602.59;5090910;28;20190;-71
2023/05/10 08:08:06;;;;;;;7.33;1.80;;;;;;;18.00;100.00;99603.53;5069585;28;20200;-74
2023/05/10 08:10:31;;;;;;;2.90;1.53;;;;;;;17.55;100.00;99607.66;5082747;28;20694;-72
2023/05/10 08:12:58;;;;;;;5.90;1.90;;;;;;;17.61;100.00;99610.63;5071805;28;20546;-72
2023/05/10 08:15:23;;;;;;;5.23;2.13;;;;;;;17.40;100.00;99612.47;5086829;28;20175;-73
2023/05/10 08:17:49;;;;;;;6.70;1.90;;;;;;;17.32;100.00;99616.72;5094367;28;20171;-72
2023/05/10 08:20:16;;;;;;;4.93;1.80;;;;;;;17.39;100.00;99610.81;5085014;28;20187;-73
2023/05/10 08:22:41;;;;;;;6.10;1.97;;;;;;;17.64;100.00;99607.75;5107886;28;20304;-71
2023/05/10 08:25:07;;;;;;;3.37;1.53;;;;;;;17.74;100.00;99605.94;5093718;28;20654;-72
2023/05/10 08:27:32;;;;;;;3.37;1.87;;;;;;;17.73;100.00;99605.13;5094618;28;20172;-71
2023/05/10 08:29:58;;;;;;;3.83;1.50;;;;;;;17.96;100.00;99610.00;5094177;28;20176;-71
2023/05/10 08:32:23;;;;;;;8.07;1.90;;;;;;;18.02;100.00;99612.03;5100146;28;20303;-72
2023/05/10 08:34:48;;;;;;;4.43;1.83;;;;;;;17.90;100.00;99610.53;5094379;28;20176;-73
2023/05/10 08:37:13;;;;;;;3.23;2.00;;;;;;;17.84;100.00;99617.13;5076145;28;20176;-72
2023/05/10 08:39:39;;;;;;;4.47;1.67;;;;;;;17.47;100.00;99624.91;5076032;28;20473;-72
2023/05/10 08:42:05;;;;;;;6.00;2.00;;;;;;;17.10;100.00;99627.28;5080921;28;20570;-69
2023/05/10 08:44:35;;;;;;;5.37;2.77;;;;;;;15.39;100.00;99631.44;5086628;28;20554;-68
2023/05/10 08:47:04;;;;;;;4.70;2.13;;;;;;;15.16;100.00;99634.16;5093853;28;20652;-70
2023/05/10 08:49:31;;;;;;;5.73;2.37;;;;;;;15.06;100.00;99644.44;5075859;28;20184;-69
2023/05/10 08:51:57;;;;;;;4.67;1.90;;;;;;;14.89;100.00;99635.44;5098157;28;20215;-69
2023/05/10 08:54:24;;;;;;;3.40;1.90;;;;;;;15.11;100.00;99638.91;5094497;28;20309;-69
2023/05/10 08:56:49;;;;;;;2.63;1.90;;;;;;;15.26;100.00;99642.81;5093697;28;20233;-70
2023/05/10 08:59:15;;;;;;;6.07;2.10;;;;;;;15.41;100.00;99643.34;5093518;28;20271;-70
2023/05/10 09:01:44;;;;;;;4.23;2.10;;;;;;;15.51;100.00;99647.78;5096356;28;20230;-70
2023/05/10 09:04:10;;;;;;;5.33;2.20;;;;;;;15.63;100.00;99644.16;5095640;28;20654;-69
2023/05/10 09:06:36;;;;;;;2.37;1.87;;;;;;;15.43;100.00;99646.63;5093313;28;20233;-69
2023/05/10 09:09:01;;;;;;;4.10;1.67;;;;;;;15.55;100.00;99649.16;5093683;28;20187;-71
2023/05/10 09:11:28;;;;;;;3.27;2.17;;;;;;;15.57;100.00;99644.69;5094066;28;20235;-69
2023/05/10 09:13:55;;;;;;;3.33;1.90;;;;;;;15.71;100.00;99653.91;5097032;28;20255;-70
2023/05/10 09:16:20;;;;;;;6.33;2.13;;;;;;;15.70;100.00;99653.06;5093165;28;20180;-68
2023/05/10 09:18:46;;;;;;;3.37;1.90;;;;;;;15.61;100.00;99657.25;5092559;28;20515;-69
2023/05/10 09:21:11;;;;;;;4.27;2.10;;;;;;;15.76;100.00;99657.72;5091921;28;20227;-70
2023/05/10 09:23:36;;;;;;;1.77;1.50;;;;;;;15.64;100.00;99662.19;5100028;28;20215;-70
2023/05/10 09:26:05;;;;;;;2.97;1.30;;;;;;;15.63;100.00;99665.72;5062393;28;20192;-70
2023/05/10 09:28:49;;;;;;;2.30;1.63;;;;;;;15.53;100.00;99666.59;5072748;28;20280;-69
2023/05/10 09:31:14;;;;;;;0.73;0.63;;;;;;;15.71;100.00;99669.44;5072094;28;20314;-70
2023/05/10 09:33:44;;;;;;;2.77;1.63;;;;;;;16.11;100.00;99668.72;5099665;28;20247;-71
2023/05/10 09:36:10;;;;;;;0.97;0.90;;;;;;;16.60;100.00;99672.31;5092523;28;20212;-70
2023/05/10 09:38:49;;;;;;;1.60;0.83;;;;;;;17.43;100.00;99665.97;5093282;28;20226;-69
2023/05/10 09:41:18;;;;;;;2.93;1.03;;;;;;;18.02;100.00;99658.88;5080498;28;20719;-70
2023/05/10 09:43:44;;;;;;;2.70;0.93;;;;;;;17.98;100.00;99657.50;5085425;28;20195;-69
2023/05/10 09:46:10;;;;;;;1.13;0.80;;;;;;;18.30;100.00;99653.66;5092389;28;20238;-68
2023/05/10 09:48:42;;;;;;;3.10;1.07;;;;;;;19.33;100.00;99661.22;5093013;28;20300;-69
2023/05/10 09:51:07;;;;;;;1.57;0.80;;;;;;;19.83;100.00;99659.78;5071918;28;20223;-68
2023/05/10 09:53:33;;;;;;;2.87;0.63;;;;;;;21.47;100.00;99660.34;5099966;28;20654;-68
2023/05/10 09:55:58;;;;;;;3.90;0.77;;;;;;;23.87;95.59;99649.28;5092207;28;20249;-68
2023/05/10 09:58:23;;;;;;;0.57;0.40;;;;;;;24.68;89.81;99655.53;5092790;28;20271;-70
2023/05/10 10:00:51;;;;;;;1.77;0.60;;;;;;;23.99;90.30;99673.31;5088118;28;20632;-69
2023/05/10 10:03:18;;;;;;;2.33;0.53;;;;;;;23.16;81.84;99668.00;5102021;28;20203;-69
2023/05/10 10:05:45;;;;;;;1.90;0.30;;;;;;;23.35;87.43;99662.25;5092138;28;20255;-70
2023/05/10 10:08:12;;;;;;;0.37;0.37;;;;;;;22.33;86.18;99671.09;5092327;28;20195;-73
2023/05/10 10:10:39;;;;;;;1.80;0.40;;;;;;;22.35;87.69;99678.75;5085100;28;20757;-70
2023/05/10 10:13:05;;;;;;;0.40;0.40;;;;;;;23.37;82.45;99673.41;5103466;28;20231;-71
2023/05/10 10:15:32;;;;;;;0.45;0.40;;;;;;;23.61;75.81;99671.53;5091796;28;20188;-71
2023/05/10 10:17:59;;;;;;;0.75;0.63;;;;;;;23.64;75.42;99665.94;5070899;28;20263;-71
2023/05/10 10:20:27;;;;;;;1.00;0.40;;;;;;;23.84;74.73;99670.63;5084231;28;20219;-71
2023/05/10 10:22:53;;;;;;;1.10;0.60;;;;;;;24.67;71.77;99670.47;5097108;28;20633;-69
2023/05/10 10:25:21;;;;;;;1.70;0.60;;;;;;;24.29;64.97;99670.66;5078159;28;20207;-72
2023/05/10 10:27:52;;;;;;;1.98;0.38;;;;;;;23.32;69.49;99669.66;5092293;28;20193;-72
2023/05/10 10:30:41;;;;;;;1.13;0.52;;;;;;;22.50;69.69;99671.84;5083709;28;20194;-73
2023/05/10 10:33:38;;;;;;;1.30;0.70;;;;;;;21.89;77.81;99672.41;5080917;28;20192;-71
2023/05/10 10:36:04;;;;;;;0.85;0.52;;;;;;;21.39;88.35;99682.06;5091065;28;20180;-72
2023/05/10 10:38:48;;;;;;;0.60;0.60;;;;;;;21.12;86.57;99691.06;5070768;28;20609;-71
2023/05/10 10:41:33;;;;;;;7.73;0.80;;;;;;;20.16;86.05;99691.25;5078590;28;20223;-71
2023/05/10 10:44:26;;;;;;;1.47;0.50;;;;;;;20.15;93.35;99691.44;5091731;28;20204;-70
2023/05/10 10:47:18;;;;;;;3.63;0.80;;;;;;;19.73;95.05;99694.75;5082576;28;20872;-73
2023/05/10 10:49:51;;;;;;;2.53;0.77;;;;;;;19.51;97.49;99689.03;5079763;28;20638;-72
2023/05/10 10:52:30;;;;;;;1.90;0.60;;;;;;;19.10;100.00;99686.09;5097277;28;20219;-72
2023/05/10 10:55:01;;;;;;;0.60;0.57;;;;;;;18.78;99.39;99690.00;5092030;28;20187;-72
2023/05/10 10:57:30;;;;;;;2.80;0.87;;;;;;;18.86;100.00;99683.09;5070188;28;20173;-73
2023/05/10 11:00:32;;;;;;;6.27;1.57;;;;;;;18.70;100.00;99683.75;5083179;28;20295;-72
2023/05/10 11:03:14;;;;;;;1.80;0.60;;;;;;;18.66;100.00;99681.59;5065971;28;20219;-71
2023/05/10 11:05:40;;;;;;;5.10;0.80;;;;;;;19.01;100.00;99690.44;5089605;28;20187;-72
2023/05/10 11:08:26;;;;;;;3.17;1.10;;;;;;;19.09;97.83;99687.91;5091669;28;20183;-72
2023/05/10 11:11:00;;;;;;;0.67;0.63;;;;;;;19.21;95.76;99687.69;5074636;28;20782;-72
2023/05/10 11:13:33;;;;;;;2.80;0.63;;;;;;;19.14;93.92;99688.28;5074434;28;20266;-72
2023/05/10 11:16:09;;;;;;;3.13;2.23;;;;;;;19.49;94.64;99683.19;5087853;28;20238;-72
2023/05/10 11:18:36;;;;;;;0.50;0.50;;;;;;;20.00;92.42;99691.19;5098551;28;20540;-72
2023/05/10 11:21:04;;;;;;;0.73;0.67;;;;;;;20.41;92.72;99680.13;5088551;28;20239;-72
2023/05/10 11:23:51;;;;;;;2.47;0.90;;;;;;;20.92;86.62;99682.72;5098925;28;20737;-73
2023/05/10 11:26:17;;;;;;;1.90;0.90;;;;;;;21.19;84.19;99678.19;5091025;28;20180;-72
2023/05/10 11:28:48;;;;;;;1.53;0.70;;;;;;;21.79;83.20;99681.41;5070080;28;20208;-72
2023/05/10 11:31:14;;;;;;;1.37;0.93;;;;;;;22.39;80.65;99678.28;5062339;28;20254;-72